sensor_id;sensor_type;location;lat;lon;timestamp;temperature;humidity
15617;DHT22;7908;51.688;7.130;2023-01-01T00:00:51;15.80;99.90
15617;DHT22;7908;51.688;7.130;2023-01-01T00:03:20;15.80;99.90
15617;DHT22;7908;51.688;7.130;2023-01-01T00:05:50;15.80;99.90
15617;DHT22;7908;51.688;7.130;2023-01-01T00:08:20;15.80;99.90
15617;DHT22;7908;51.688;7.130;2023-01-01T00:10:50;15.90;99.90
15617;DHT22;7908;51.688;7.130;2023-01-01T00:13:20;15.90;99.90
15617;DHT22;7908;51.688;7.130;2023-01-01T00:15:49;15.90;99.90
15617;DHT22;7908;51.688;7.130;2023-01-01T00:18:18;15.90;99.90
15617;DHT22;7908;51.688;7.130;2023-01-01T00:20:52;15.80;99.90
15617;DHT22;7908;51.688;7.130;2023-01-01T00:23:33;15.90;99.90
15617;DHT22;7908;51.688;7.130;2023-01-01T00:26:08;15.90;99.90
15617;DHT22;7908;51.688;7.130;2023-01-01T00:28:37;15.90;99.90
15617;DHT22;7908;51.688;7.130;2023-01-01T00:31:06;15.90;99.90
15617;DHT22;7908;51.688;7.130;2023-01-01T00:33:38;15.80;99.90
15617;DHT22;7908;51.688;7.130;2023-01-01T00:36:09;15.80;99.90
15617;DHT22;7908;51.688;7.130;2023-01-01T00:38:39;15.80;99.90
15617;DHT22;7908;51.688;7.130;2023-01-01T00:41:08;15.80;99.90
15617;DHT22;7908;51.688;7.130;2023-01-01T00:43:38;15.80;99.90
15617;DHT22;7908;51.688;7.130;2023-01-01T00:46:07;15.80;99.90
15617;DHT22;7908;51.688;7.130;2023-01-01T00:48:37;15.80;99.90
15617;DHT22;7908;51.688;7.130;2023-01-01T00:51:08;15.80;99.90
15617;DHT22;7908;51.688;7.130;2023-01-01T00:53:37;15.80;99.90
15617;DHT22;7908;51.688;7.130;2023-01-01T00:56:07;15.80;99.90
15617;DHT22;7908;51.688;7.130;2023-01-01T00:58:37;15.80;99.90
15617;DHT22;7908;51.688;7.130;2023-01-01T01:01:05;15.70;99.90
15617;DHT22;7908;51.688;7.130;2023-01-01T01:03:37;15.70;99.90
15617;DHT22;7908;51.688;7.130;2023-01-01T01:06:14;15.70;99.90
15617;DHT22;7908;51.688;7.130;2023-01-01T01:08:46;15.70;99.90
15617;DHT22;7908;51.688;7.130;2023-01-01T01:11:17;15.70;99.90
15617;DHT22;7908;51.688;7.130;2023-01-01T01:13:47;15.70;99.90
15617;DHT22;7908;51.688;7.130;2023-01-01T01:16:18;15.70;99.90
15617;DHT22;7908;51.688;7.130;2023-01-01T01:18:49;15.70;99.90
15617;DHT22;7908;51.688;7.130;2023-01-01T01:21:21;15.60;99.90
15617;DHT22;7908;51.688;7.130;2023-01-01T01:23:52;15.60;99.90
15617;DHT22;7908;51.688;7.130;2023-01-01T01:26:23;15.60;99.90
15617;DHT22;7908;51.688;7.130;2023-01-01T01:28:52;15.50;99.90
15617;DHT22;7908;51.688;7.130;2023-01-01T01:31:25;15.50;99.90
15617;DHT22;7908;51.688;7.130;2023-01-01T01:33:55;15.50;99.90
15617;DHT22;7908;51.688;7.130;2023-01-01T01:36:25;15.50;99.90
15617;DHT22;7908;51.688;7.130;2023-01-01T01:38:55;15.50;99.90
15617;DHT22;7908;51.688;7.130;2023-01-01T01:41:26;15.50;99.90
15617;DHT22;7908;51.688;7.130;2023-01-01T01:43:58;15.50;99.90
15617;DHT22;7908;51.688;7.130;2023-01-01T01:46:31;15.50;99.90
15617;DHT22;7908;51.688;7.130;2023-01-01T01:49:07;15.60;99.90
15617;DHT22;7908;51.688;7.130;2023-01-01T01:51:42;15.50;99.90
15617;DHT22;7908;51.688;7.130;2023-01-01T01:54:15;15.50;99.90
15617;DHT22;7908;51.688;7.130;2023-01-01T01:56:48;15.50;99.90
15617;DHT22;7908;51.688;7.130;2023-01-01T01:59:20;15.50;99.90
15617;DHT22;7908;51.688;7.130;2023-01-01T02:01:50;15.50;99.90
15617;DHT22;7908;51.688;7.130;2023-01-01T02:04:19;15.50;99.90
15617;DHT22;7908;51.688;7.130;2023-01-01T02:06:50;15.50;99.90
15617;DHT22;7908;51.688;7.130;2023-01-01T02:09:20;15.50;99.90
15617;DHT22;7908;51.688;7.130;2023-01-01T02:11:49;15.50;99.90
15617;DHT22;7908;51.688;7.130;2023-01-01T02:14:17;15.50;99.90
15617;DHT22;7908;51.688;7.130;2023-01-01T02:16:50;15.40;99.90
15617;DHT22;7908;51.688;7.130;2023-01-01T02:19:30;15.40;99.90
15617;DHT22;7908;51.688;7.130;2023-01-01T02:22:10;15.30;99.90
15617;DHT22;7908;51.688;7.130;2023-01-01T02:25:03;15.30;99.90
15617;DHT22;7908;51.688;7.130;2023-01-01T02:27:45;15.30;99.90
15617;DHT22;7908;51.688;7.130;2023-01-01T02:30:17;15.30;99.90
15617;DHT22;7908;51.688;7.130;2023-01-01T02:32:48;15.20;99.90
15617;DHT22;7908;51.688;7.130;2023-01-01T02:35:21;15.20;99.90
15617;DHT22;7908;51.688;7.130;2023-01-01T02:38:30;15.20;99.90
15617;DHT22;7908;51.688;7.130;2023-01-01T02:41:01;15.10;99.90
15617;DHT22;7908;51.688;7.130;2023-01-01T02:43:31;15.10;99.90
15617;DHT22;7908;51.688;7.130;2023-01-01T02:46:05;15.10;99.90
15617;DHT22;7908;51.688;7.130;2023-01-01T02:48:39;15.10;99.90
15617;DHT22;7908;51.688;7.130;2023-01-01T02:51:15;15.10;99.90
15617;DHT22;7908;51.688;7.130;2023-01-01T02:53:50;15.10;99.90
15617;DHT22;7908;51.688;7.130;2023-01-01T02:56:32;15.10;99.90
15617;DHT22;7908;51.688;7.130;2023-01-01T02:59:15;15.10;99.90
15617;DHT22;7908;51.688;7.130;2023-01-01T03:02:10;15.10;99.90
15617;DHT22;7908;51.688;7.130;2023-01-01T03:04:50;15.10;99.90
15617;DHT22;7908;51.688;7.130;2023-01-01T03:07:25;15.10;99.90
15617;DHT22;7908;51.688;7.130;2023-01-01T03:10:03;15.10;99.90
15617;DHT22;7908;51.688;7.130;2023-01-01T03:12:37;15.10;99.90
15617;DHT22;7908;51.688;7.130;2023-01-01T03:15:15;15.00;99.90
15617;DHT22;7908;51.688;7.130;2023-01-01T03:17:51;15.00;99.90
15617;DHT22;7908;51.688;7.130;2023-01-01T03:20:25;14.90;99.90
15617;DHT22;7908;51.688;7.130;2023-01-01T03:22:57;15.00;99.90
15617;DHT22;7908;51.688;7.130;2023-01-01T03:25:30;15.00;99.90
15617;DHT22;7908;51.688;7.130;2023-01-01T03:28:03;14.90;99.90
15617;DHT22;7908;51.688;7.130;2023-01-01T03:30:36;14.90;99.90
15617;DHT22;7908;51.688;7.130;2023-01-01T03:33:12;14.90;99.90
15617;DHT22;7908;51.688;7.130;2023-01-01T03:35:44;14.90;99.90
15617;DHT22;7908;51.688;7.130;2023-01-01T03:38:17;14.80;99.90
15617;DHT22;7908;51.688;7.130;2023-01-01T03:40:48;14.80;99.90
15617;DHT22;7908;51.688;7.130;2023-01-01T03:43:21;14.80;99.90
15617;DHT22;7908;51.688;7.130;2023-01-01T03:45:52;14.80;99.90
15617;DHT22;7908;51.688;7.130;2023-01-01T03:48:23;14.80;99.90
15617;DHT22;7908;51.688;7.130;2023-01-01T03:51:01;14.80;99.90
15617;DHT22;7908;51.688;7.130;2023-01-01T03:53:37;14.80;99.90
15617;DHT22;7908;51.688;7.130;2023-01-01T03:56:13;14.70;99.90
15617;DHT22;7908;51.688;7.130;2023-01-01T03:58:48;14.70;99.90
15617;DHT22;7908;51.688;7.130;2023-01-01T04:01:25;14.80;99.90
15617;DHT22;7908;51.688;7.130;2023-01-01T04:03:56;14.70;99.90
15617;DHT22;7908;51.688;7.130;2023-01-01T04:06:26;14.60;99.90
15617;DHT22;7908;51.688;7.130;2023-01-01T04:08:57;14.60;99.90
15617;DHT22;7908;51.688;7.130;2023-01-01T04:11:28;14.60;99.90
15617;DHT22;7908;51.688;7.130;2023-01-01T04:14:26;14.60;99.90
15617;DHT22;7908;51.688;7.130;2023-01-01T04:16:55;14.60;99.90
15617;DHT22;7908;51.688;7.130;2023-01-01T04:19:26;14.60;99.90
15617;DHT22;7908;51.688;7.130;2023-01-01T04:21:55;14.60;99.90
15617;DHT22;7908;51.688;7.130;2023-01-01T04:24:24;14.60;99.90
15617;DHT22;7908;51.688;7.130;2023-01-01T04:26:53;14.60;99.90
15617;DHT22;7908;51.688;7.130;2023-01-01T04:29:21;14.60;99.90
15617;DHT22;7908;51.688;7.130;2023-01-01T04:31:50;14.60;99.90
15617;DHT22;7908;51.688;7.130;2023-01-01T04:34:18;14.60;99.90
15617;DHT22;7908;51.688;7.130;2023-01-01T04:36:48;14.60;99.90
15617;DHT22;7908;51.688;7.130;2023-01-01T04:39:17;14.60;99.90
15617;DHT22;7908;51.688;7.130;2023-01-01T04:41:46;14.50;99.90
15617;DHT22;7908;51.688;7.130;2023-01-01T04:44:14;14.50;99.90
15617;DHT22;7908;51.688;7.130;2023-01-01T04:46:42;14.50;99.90
15617;DHT22;7908;51.688;7.130;2023-01-01T04:49:11;14.50;99.90
15617;DHT22;7908;51.688;7.130;2023-01-01T04:51:40;14.50;99.90
15617;DHT22;7908;51.688;7.130;2023-01-01T04:54:09;14.50;99.90
15617;DHT22;7908;51.688;7.130;2023-01-01T04:56:38;14.60;99.90
15617;DHT22;7908;51.688;7.130;2023-01-01T04:59:06;14.50;99.90
15617;DHT22;7908;51.688;7.130;2023-01-01T05:01:35;14.50;99.90
15617;DHT22;7908;51.688;7.130;2023-01-01T05:04:04;14.50;99.90
15617;DHT22;7908;51.688;7.130;2023-01-01T05:06:33;14.50;99.90
15617;DHT22;7908;51.688;7.130;2023-01-01T05:09:01;14.50;99.90
15617;DHT22;7908;51.688;7.130;2023-01-01T05:11:31;14.40;99.90
15617;DHT22;7908;51.688;7.130;2023-01-01T05:14:00;14.40;99.90
15617;DHT22;7908;51.688;7.130;2023-01-01T05:16:30;14.40;99.90
15617;DHT22;7908;51.688;7.130;2023-01-01T05:18:59;14.30;99.90
15617;DHT22;7908;51.688;7.130;2023-01-01T05:21:30;14.20;99.90
15617;DHT22;7908;51.688;7.130;2023-01-01T05:24:00;14.20;99.90
15617;DHT22;7908;51.688;7.130;2023-01-01T05:26:31;14.10;99.90
15617;DHT22;7908;51.688;7.130;2023-01-01T05:29:00;14.10;99.90
15617;DHT22;7908;51.688;7.130;2023-01-01T05:31:30;14.10;99.90
15617;DHT22;7908;51.688;7.130;2023-01-01T05:34:00;14.10;99.90
15617;DHT22;7908;51.688;7.130;2023-01-01T05:36:29;14.20;99.90
15617;DHT22;7908;51.688;7.130;2023-01-01T05:38:58;14.20;99.90
15617;DHT22;7908;51.688;7.130;2023-01-01T05:41:26;14.20;99.90
15617;DHT22;7908;51.688;7.130;2023-01-01T05:44:01;14.20;99.90
15617;DHT22;7908;51.688;7.130;2023-01-01T05:46:30;14.20;99.90
15617;DHT22;7908;51.688;7.130;2023-01-01T05:48:59;14.30;99.90
15617;DHT22;7908;51.688;7.130;2023-01-01T05:51:28;14.20;99.90
15617;DHT22;7908;51.688;7.130;2023-01-01T05:53:58;14.20;99.90
15617;DHT22;7908;51.688;7.130;2023-01-01T05:56:27;14.20;99.90
15617;DHT22;7908;51.688;7.130;2023-01-01T05:58:55;14.20;99.90
15617;DHT22;7908;51.688;7.130;2023-01-01T06:01:27;14.20;99.90
15617;DHT22;7908;51.688;7.130;2023-01-01T06:03:57;14.20;99.90
15617;DHT22;7908;51.688;7.130;2023-01-01T06:06:29;14.20;99.90
15617;DHT22;7908;51.688;7.130;2023-01-01T06:09:00;14.30;99.90
15617;DHT22;7908;51.688;7.130;2023-01-01T06:11:30;14.30;99.90
15617;DHT22;7908;51.688;7.130;2023-01-01T06:13:59;14.30;99.90
15617;DHT22;7908;51.688;7.130;2023-01-01T06:16:30;14.30;99.90
15617;DHT22;7908;51.688;7.130;2023-01-01T06:18:59;14.30;99.90
15617;DHT22;7908;51.688;7.130;2023-01-01T06:21:28;14.30;99.90
15617;DHT22;7908;51.688;7.130;2023-01-01T06:23:57;14.30;99.90
15617;DHT22;7908;51.688;7.130;2023-01-01T06:26:28;14.30;99.90
15617;DHT22;7908;51.688;7.130;2023-01-01T06:28:57;14.40;99.90
15617;DHT22;7908;51.688;7.130;2023-01-01T06:31:27;14.40;99.90
15617;DHT22;7908;51.688;7.130;2023-01-01T06:34:04;14.40;99.90
15617;DHT22;7908;51.688;7.130;2023-01-01T06:36:32;14.40;99.90
15617;DHT22;7908;51.688;7.130;2023-01-01T06:39:01;14.40;99.90
15617;DHT22;7908;51.688;7.130;2023-01-01T06:41:30;14.40;99.90
15617;DHT22;7908;51.688;7.130;2023-01-01T06:44:00;14.40;99.90
15617;DHT22;7908;51.688;7.130;2023-01-01T06:46:33;14.40;99.90
15617;DHT22;7908;51.688;7.130;2023-01-01T06:49:05;14.40;99.90
15617;DHT22;7908;51.688;7.130;2023-01-01T06:51:37;14.40;99.90
15617;DHT22;7908;51.688;7.130;2023-01-01T06:54:06;14.40;99.90
15617;DHT22;7908;51.688;7.130;2023-01-01T06:56:36;14.40;99.90
15617;DHT22;7908;51.688;7.130;2023-01-01T06:59:04;14.30;99.90
15617;DHT22;7908;51.688;7.130;2023-01-01T07:01:35;14.30;99.90
15617;DHT22;7908;51.688;7.130;2023-01-01T07:04:09;14.30;99.90
15617;DHT22;7908;51.688;7.130;2023-01-01T07:06:38;14.30;99.90
15617;DHT22;7908;51.688;7.130;2023-01-01T07:09:07;14.30;99.90
15617;DHT22;7908;51.688;7.130;2023-01-01T07:11:36;14.30;99.90
15617;DHT22;7908;51.688;7.130;2023-01-01T07:14:04;14.30;99.90
15617;DHT22;7908;51.688;7.130;2023-01-01T07:16:32;14.30;99.90
15617;DHT22;7908;51.688;7.130;2023-01-01T07:19:01;14.20;99.90
15617;DHT22;7908;51.688;7.130;2023-01-01T07:21:32;14.20;99.90
15617;DHT22;7908;51.688;7.130;2023-01-01T07:24:03;14.20;99.90
15617;DHT22;7908;51.688;7.130;2023-01-01T07:26:32;14.20;99.90
15617;DHT22;7908;51.688;7.130;2023-01-01T07:29:01;14.10;99.90
15617;DHT22;7908;51.688;7.130;2023-01-01T07:31:34;14.00;99.90
15617;DHT22;7908;51.688;7.130;2023-01-01T07:34:03;13.90;99.90
15617;DHT22;7908;51.688;7.130;2023-01-01T07:36:34;13.70;99.90
15617;DHT22;7908;51.688;7.130;2023-01-01T07:39:02;13.30;99.90
15617;DHT22;7908;51.688;7.130;2023-01-01T07:41:31;13.00;99.90
15617;DHT22;7908;51.688;7.130;2023-01-01T07:43:59;12.70;99.90
15617;DHT22;7908;51.688;7.130;2023-01-01T07:46:28;12.40;99.90
15617;DHT22;7908;51.688;7.130;2023-01-01T07:48:56;12.20;99.90
15617;DHT22;7908;51.688;7.130;2023-01-01T07:51:25;12.00;99.90
15617;DHT22;7908;51.688;7.130;2023-01-01T07:53:55;12.00;99.90
15617;DHT22;7908;51.688;7.130;2023-01-01T07:56:32;11.90;99.90
15617;DHT22;7908;51.688;7.130;2023-01-01T07:59:01;11.80;99.90
15617;DHT22;7908;51.688;7.130;2023-01-01T08:01:29;11.80;99.90
15617;DHT22;7908;51.688;7.130;2023-01-01T08:03:58;11.80;99.90
15617;DHT22;7908;51.688;7.130;2023-01-01T08:06:27;11.70;99.90
15617;DHT22;7908;51.688;7.130;2023-01-01T08:08:57;11.70;99.90
15617;DHT22;7908;51.688;7.130;2023-01-01T08:11:25;11.70;99.90
15617;DHT22;7908;51.688;7.130;2023-01-01T08:13:53;11.70;99.90
15617;DHT22;7908;51.688;7.130;2023-01-01T08:16:22;11.70;99.90
15617;DHT22;7908;51.688;7.130;2023-01-01T08:18:50;11.70;99.90
15617;DHT22;7908;51.688;7.130;2023-01-01T08:21:19;11.60;99.90
15617;DHT22;7908;51.688;7.130;2023-01-01T08:23:47;11.60;99.90
15617;DHT22;7908;51.688;7.130;2023-01-01T08:26:26;11.60;99.90
15617;DHT22;7908;51.688;7.130;2023-01-01T08:28:55;11.60;99.90
15617;DHT22;7908;51.688;7.130;2023-01-01T08:31:23;11.60;99.90
15617;DHT22;7908;51.688;7.130;2023-01-01T08:33:52;11.60;99.90
15617;DHT22;7908;51.688;7.130;2023-01-01T08:36:21;11.60;99.90
15617;DHT22;7908;51.688;7.130;2023-01-01T08:38:49;11.60;99.90
15617;DHT22;7908;51.688;7.130;2023-01-01T08:41:19;11.60;99.90
15617;DHT22;7908;51.688;7.130;2023-01-01T08:43:48;11.60;99.90
15617;DHT22;7908;51.688;7.130;2023-01-01T08:46:17;11.60;99.90
15617;DHT22;7908;51.688;7.130;2023-01-01T08:48:45;11.60;99.90
15617;DHT22;7908;51.688;7.130;2023-01-01T08:51:14;11.70;99.90
15617;DHT22;7908;51.688;7.130;2023-01-01T08:53:43;11.70;99.90
15617;DHT22;7908;51.688;7.130;2023-01-01T08:56:19;11.80;99.90
15617;DHT22;7908;51.688;7.130;2023-01-01T08:58:48;11.80;99.90
15617;DHT22;7908;51.688;7.130;2023-01-01T09:01:16;11.80;99.90
15617;DHT22;7908;51.688;7.130;2023-01-01T09:03:48;11.80;99.90
15617;DHT22;7908;51.688;7.130;2023-01-01T09:06:16;11.80;99.90
15617;DHT22;7908;51.688;7.130;2023-01-01T09:08:45;11.80;99.90
15617;DHT22;7908;51.688;7.130;2023-01-01T09:11:21;11.80;99.90
15617;DHT22;7908;51.688;7.130;2023-01-01T09:13:50;11.70;99.90
15617;DHT22;7908;51.688;7.130;2023-01-01T09:16:25;11.70;99.90
15617;DHT22;7908;51.688;7.130;2023-01-01T09:18:54;11.80;99.90
15617;DHT22;7908;51.688;7.130;2023-01-01T09:21:26;11.80;99.90
15617;DHT22;7908;51.688;7.130;2023-01-01T09:23:55;11.80;99.90
15617;DHT22;7908;51.688;7.130;2023-01-01T09:26:25;11.90;99.90
15617;DHT22;7908;51.688;7.130;2023-01-01T09:28:57;11.90;99.90
15617;DHT22;7908;51.688;7.130;2023-01-01T09:31:26;11.90;99.90
15617;DHT22;7908;51.688;7.130;2023-01-01T09:33:55;11.90;99.90
15617;DHT22;7908;51.688;7.130;2023-01-01T09:36:27;12.00;99.90
15617;DHT22;7908;51.688;7.130;2023-01-01T09:38:58;12.00;99.90
15617;DHT22;7908;51.688;7.130;2023-01-01T09:41:45;12.10;99.90
15617;DHT22;7908;51.688;7.130;2023-01-01T09:44:27;12.10;99.90
15617;DHT22;7908;51.688;7.130;2023-01-01T09:47:02;12.10;99.90
15617;DHT22;7908;51.688;7.130;2023-01-01T09:49:34;12.10;99.90
15617;DHT22;7908;51.688;7.130;2023-01-01T09:52:08;12.20;99.90
15617;DHT22;7908;51.688;7.130;2023-01-01T09:54:40;12.20;99.90
15617;DHT22;7908;51.688;7.130;2023-01-01T09:57:13;12.20;99.90
15617;DHT22;7908;51.688;7.130;2023-01-01T09:59:46;12.20;99.90
15617;DHT22;7908;51.688;7.130;2023-01-01T10:02:31;12.20;99.90
15617;DHT22;7908;51.688;7.130;2023-01-01T10:05:05;12.30;99.90
15617;DHT22;7908;51.688;7.130;2023-01-01T10:07:45;12.30;99.90
15617;DHT22;7908;51.688;7.130;2023-01-01T10:10:25;12.30;99.90
15617;DHT22;7908;51.688;7.130;2023-01-01T10:13:04;12.30;99.90
15617;DHT22;7908;51.688;7.130;2023-01-01T10:15:38;12.30;99.90
15617;DHT22;7908;51.688;7.130;2023-01-01T10:18:15;12.30;99.90
15617;DHT22;7908;51.688;7.130;2023-01-01T10:20:47;12.20;99.90
15617;DHT22;7908;51.688;7.130;2023-01-01T10:23:22;12.30;99.90
15617;DHT22;7908;51.688;7.130;2023-01-01T10:25:53;12.30;99.90
15617;DHT22;7908;51.688;7.130;2023-01-01T10:28:32;12.30;99.90
15617;DHT22;7908;51.688;7.130;2023-01-01T10:31:14;12.30;99.90
15617;DHT22;7908;51.688;7.130;2023-01-01T10:33:45;12.30;99.90
15617;DHT22;7908;51.688;7.130;2023-01-01T10:36:15;12.40;99.90
15617;DHT22;7908;51.688;7.130;2023-01-01T10:38:46;12.40;99.90
15617;DHT22;7908;51.688;7.130;2023-01-01T10:41:16;12.50;99.90
15617;DHT22;7908;51.688;7.130;2023-01-01T10:43:48;12.50;99.90
15617;DHT22;7908;51.688;7.130;2023-01-01T10:46:20;12.50;99.90
15617;DHT22;7908;51.688;7.130;2023-01-01T10:49:08;12.50;99.90
15617;DHT22;7908;51.688;7.130;2023-01-01T10:51:43;12.60;99.90
15617;DHT22;7908;51.688;7.130;2023-01-01T10:54:33;12.70;99.90
15617;DHT22;7908;51.688;7.130;2023-01-01T10:57:13;12.70;99.90
15617;DHT22;7908;51.688;7.130;2023-01-01T10:59:44;12.70;99.90
15617;DHT22;7908;51.688;7.130;2023-01-01T11:02:22;12.80;99.90
15617;DHT22;7908;51.688;7.130;2023-01-01T11:05:09;12.80;99.90
15617;DHT22;7908;51.688;7.130;2023-01-01T11:07:47;12.80;99.90
15617;DHT22;7908;51.688;7.130;2023-01-01T11:10:18;12.80;99.90
15617;DHT22;7908;51.688;7.130;2023-01-01T11:12:48;12.80;99.90
15617;DHT22;7908;51.688;7.130;2023-01-01T11:15:38;12.80;99.90
15617;DHT22;7908;51.688;7.130;2023-01-01T11:18:13;12.90;99.90
15617;DHT22;7908;51.688;7.130;2023-01-01T11:20:42;12.90;99.90
15617;DHT22;7908;51.688;7.130;2023-01-01T11:23:28;12.90;99.90
15617;DHT22;7908;51.688;7.130;2023-01-01T11:25:59;12.90;99.90
15617;DHT22;7908;51.688;7.130;2023-01-01T11:28:29;13.00;99.90
15617;DHT22;7908;51.688;7.130;2023-01-01T11:31:12;13.00;99.90
15617;DHT22;7908;51.688;7.130;2023-01-01T11:33:45;13.10;99.90
15617;DHT22;7908;51.688;7.130;2023-01-01T11:36:21;13.10;99.90
15617;DHT22;7908;51.688;7.130;2023-01-01T11:39:05;13.20;99.90
15617;DHT22;7908;51.688;7.130;2023-01-01T11:41:41;13.20;99.90
15617;DHT22;7908;51.688;7.130;2023-01-01T11:44:20;13.20;99.90
15617;DHT22;7908;51.688;7.130;2023-01-01T11:46:52;13.20;99.90
15617;DHT22;7908;51.688;7.130;2023-01-01T11:49:23;13.20;99.90
15617;DHT22;7908;51.688;7.130;2023-01-01T11:51:53;13.10;99.90
15617;DHT22;7908;51.688;7.130;2023-01-01T11:54:29;13.10;99.90
15617;DHT22;7908;51.688;7.130;2023-01-01T11:57:06;13.00;99.90
15617;DHT22;7908;51.688;7.130;2023-01-01T11:59:42;13.00;99.90
15617;DHT22;7908;51.688;7.130;2023-01-01T12:02:17;13.10;99.90
15617;DHT22;7908;51.688;7.130;2023-01-01T12:04:56;13.00;99.90
15617;DHT22;7908;51.688;7.130;2023-01-01T12:07:30;13.10;99.90
15617;DHT22;7908;51.688;7.130;2023-01-01T12:10:05;13.10;99.90
15617;DHT22;7908;51.688;7.130;2023-01-01T12:12:43;13.20;99.90
15617;DHT22;7908;51.688;7.130;2023-01-01T12:15:17;13.20;99.90
15617;DHT22;7908;51.688;7.130;2023-01-01T12:17:58;13.30;99.90
15617;DHT22;7908;51.688;7.130;2023-01-01T12:20:31;13.40;99.90
15617;DHT22;7908;51.688;7.130;2023-01-01T12:23:01;13.40;99.90
15617;DHT22;7908;51.688;7.130;2023-01-01T12:25:35;13.50;99.90
15617;DHT22;7908;51.688;7.130;2023-01-01T12:28:16;13.50;99.90
15617;DHT22;7908;51.688;7.130;2023-01-01T12:30:53;13.60;99.90
15617;DHT22;7908;51.688;7.130;2023-01-01T12:33:39;13.60;99.90
15617;DHT22;7908;51.688;7.130;2023-01-01T12:36:21;13.70;99.90
15617;DHT22;7908;51.688;7.130;2023-01-01T12:39:15;13.80;99.90
15617;DHT22;7908;51.688;7.130;2023-01-01T12:42:00;13.80;99.90
15617;DHT22;7908;51.688;7.130;2023-01-01T12:44:37;13.80;99.90
15617;DHT22;7908;51.688;7.130;2023-01-01T12:47:18;13.80;99.90
15617;DHT22;7908;51.688;7.130;2023-01-01T12:50:04;13.80;99.90
15617;DHT22;7908;51.688;7.130;2023-01-01T12:52:43;13.90;99.90
15617;DHT22;7908;51.688;7.130;2023-01-01T12:58:21;13.90;99.90
15617;DHT22;7908;51.688;7.130;2023-01-01T13:00:56;13.90;99.90
15617;DHT22;7908;51.688;7.130;2023-01-01T13:03:29;13.90;99.90
15617;DHT22;7908;51.688;7.130;2023-01-01T13:06:01;13.90;99.90
15617;DHT22;7908;51.688;7.130;2023-01-01T13:08:31;13.90;99.90
15617;DHT22;7908;51.688;7.130;2023-01-01T13:11:01;13.90;99.90
15617;DHT22;7908;51.688;7.130;2023-01-01T13:13:31;13.90;99.90
15617;DHT22;7908;51.688;7.130;2023-01-01T13:16:00;13.90;99.90
15617;DHT22;7908;51.688;7.130;2023-01-01T13:18:32;13.90;99.90
15617;DHT22;7908;51.688;7.130;2023-01-01T13:21:20;13.90;99.90
15617;DHT22;7908;51.688;7.130;2023-01-01T13:23:52;13.80;99.90
15617;DHT22;7908;51.688;7.130;2023-01-01T13:26:41;13.80;99.90
15617;DHT22;7908;51.688;7.130;2023-01-01T13:29:45;13.80;99.90
15617;DHT22;7908;51.688;7.130;2023-01-01T13:32:16;13.80;99.90
15617;DHT22;7908;51.688;7.130;2023-01-01T13:35:16;13.80;99.90
15617;DHT22;7908;51.688;7.130;2023-01-01T13:37:50;13.80;99.90
15617;DHT22;7908;51.688;7.130;2023-01-01T13:43:29;13.90;99.90
15617;DHT22;7908;51.688;7.130;2023-01-01T13:45:59;13.90;99.90
15617;DHT22;7908;51.688;7.130;2023-01-01T13:49:03;13.90;99.90
15617;DHT22;7908;51.688;7.130;2023-01-01T13:51:51;13.80;99.90
15617;DHT22;7908;51.688;7.130;2023-01-01T14:03:57;13.80;99.90
15617;DHT22;7908;51.688;7.130;2023-01-01T14:06:34;13.70;99.90
15617;DHT22;7908;51.688;7.130;2023-01-01T14:09:06;13.70;99.90
15617;DHT22;7908;51.688;7.130;2023-01-01T14:11:37;13.70;99.90
15617;DHT22;7908;51.688;7.130;2023-01-01T14:14:18;13.70;99.90
15617;DHT22;7908;51.688;7.130;2023-01-01T14:16:58;13.70;99.90
15617;DHT22;7908;51.688;7.130;2023-01-01T14:19:29;13.70;99.90
15617;DHT22;7908;51.688;7.130;2023-01-01T14:21:58;13.70;99.90
15617;DHT22;7908;51.688;7.130;2023-01-01T14:24:28;13.60;99.90
15617;DHT22;7908;51.688;7.130;2023-01-01T14:26:57;13.60;99.90
15617;DHT22;7908;51.688;7.130;2023-01-01T14:29:29;13.60;99.90
15617;DHT22;7908;51.688;7.130;2023-01-01T14:32:13;13.60;99.90
15617;DHT22;7908;51.688;7.130;2023-01-01T14:34:45;13.60;99.90
15617;DHT22;7908;51.688;7.130;2023-01-01T14:37:23;13.60;99.90
15617;DHT22;7908;51.688;7.130;2023-01-01T14:40:10;13.50;99.90
15617;DHT22;7908;51.688;7.130;2023-01-01T14:42:43;13.50;99.90
15617;DHT22;7908;51.688;7.130;2023-01-01T14:45:14;13.50;99.90
15617;DHT22;7908;51.688;7.130;2023-01-01T14:47:53;13.50;99.90
15617;DHT22;7908;51.688;7.130;2023-01-01T14:50:29;13.60;99.90
15617;DHT22;7908;51.688;7.130;2023-01-01T14:53:07;13.50;99.90
15617;DHT22;7908;51.688;7.130;2023-01-01T14:55:42;13.60;99.90
15617;DHT22;7908;51.688;7.130;2023-01-01T14:58:24;13.60;99.90
15617;DHT22;7908;51.688;7.130;2023-01-01T15:01:13;13.50;99.90
15617;DHT22;7908;51.688;7.130;2023-01-01T15:04:17;13.50;99.90
15617;DHT22;7908;51.688;7.130;2023-01-01T15:06:55;13.50;99.90
15617;DHT22;7908;51.688;7.130;2023-01-01T15:09:27;13.40;99.90
15617;DHT22;7908;51.688;7.130;2023-01-01T15:12:19;13.30;99.90
15617;DHT22;7908;51.688;7.130;2023-01-01T15:14:50;13.30;99.90
15617;DHT22;7908;51.688;7.130;2023-01-01T15:17:49;13.30;99.90
15617;DHT22;7908;51.688;7.130;2023-01-01T15:20:29;13.30;99.90
15617;DHT22;7908;51.688;7.130;2023-01-01T15:23:13;13.20;99.90
15617;DHT22;7908;51.688;7.130;2023-01-01T15:25:46;13.20;99.90
15617;DHT22;7908;51.688;7.130;2023-01-01T15:28:20;13.20;99.90
15617;DHT22;7908;51.688;7.130;2023-01-01T15:30:52;13.20;99.90
15617;DHT22;7908;51.688;7.130;2023-01-01T15:33:26;13.20;99.90
15617;DHT22;7908;51.688;7.130;2023-01-01T15:36:12;13.20;99.90
15617;DHT22;7908;51.688;7.130;2023-01-01T15:38:49;13.20;99.90
15617;DHT22;7908;51.688;7.130;2023-01-01T15:41:32;13.20;99.90
15617;DHT22;7908;51.688;7.130;2023-01-01T15:44:17;13.10;99.90
15617;DHT22;7908;51.688;7.130;2023-01-01T15:46:48;13.20;99.90
15617;DHT22;7908;51.688;7.130;2023-01-01T15:49:27;13.20;99.90
15617;DHT22;7908;51.688;7.130;2023-01-01T15:51:59;13.10;99.90
15617;DHT22;7908;51.688;7.130;2023-01-01T15:54:43;13.10;99.90
15617;DHT22;7908;51.688;7.130;2023-01-01T15:57:18;13.10;99.90
15617;DHT22;7908;51.688;7.130;2023-01-01T15:59:48;13.10;99.90
15617;DHT22;7908;51.688;7.130;2023-01-01T16:02:23;13.10;99.90
15617;DHT22;7908;51.688;7.130;2023-01-01T16:04:56;13.10;99.90
15617;DHT22;7908;51.688;7.130;2023-01-01T16:07:42;13.10;99.90
15617;DHT22;7908;51.688;7.130;2023-01-01T16:10:20;13.10;99.90
15617;DHT22;7908;51.688;7.130;2023-01-01T16:12:56;13.10;99.90
15617;DHT22;7908;51.688;7.130;2023-01-01T16:15:27;13.10;99.90
15617;DHT22;7908;51.688;7.130;2023-01-01T16:17:56;13.10;99.90
15617;DHT22;7908;51.688;7.130;2023-01-01T16:20:32;13.10;99.90
15617;DHT22;7908;51.688;7.130;2023-01-01T16:23:13;13.10;99.90
15617;DHT22;7908;51.688;7.130;2023-01-01T16:25:42;13.10;99.90
15617;DHT22;7908;51.688;7.130;2023-01-01T16:28:19;13.00;99.90
15617;DHT22;7908;51.688;7.130;2023-01-01T16:30:50;13.00;99.90
15617;DHT22;7908;51.688;7.130;2023-01-01T16:33:20;13.00;99.90
15617;DHT22;7908;51.688;7.130;2023-01-01T16:35:51;13.00;99.90
15617;DHT22;7908;51.688;7.130;2023-01-01T16:38:27;13.00;99.90
15617;DHT22;7908;51.688;7.130;2023-01-01T16:41:13;12.90;99.90